sensor_id;sensor_type;location;lat;lon;timestamp;P1;durP1;ratioP1;P2;durP2;ratioP2
38499;SDS011;24269;51.894;4.622;2022-08-03T00:01:35;10.27;;;1.88;;
38499;SDS011;24269;51.894;4.622;2022-08-03T00:04:02;7.32;;;1.90;;
38499;SDS011;24269;51.894;4.622;2022-08-03T00:06:29;7.07;;;1.83;;
38499;SDS011;24269;51.894;4.622;2022-08-03T00:08:54;11.38;;;1.90;;
38499;SDS011;24269;51.894;4.622;2022-08-03T00:11:20;8.00;;;1.92;;
38499;SDS011;24269;51.894;4.622;2022-08-03T00:13:46;8.27;;;1.77;;
38499;SDS011;24269;51.894;4.622;2022-08-03T00:16:11;6.72;;;2.10;;
38499;SDS011;24269;51.894;4.622;2022-08-03T00:18:37;9.40;;;1.70;;
38499;SDS011;24269;51.894;4.622;2022-08-03T00:21:03;8.35;;;1.95;;
38499;SDS011;24269;51.894;4.622;2022-08-03T00:23:29;10.02;;;1.92;;
38499;SDS011;24269;51.894;4.622;2022-08-03T00:25:55;8.55;;;1.85;;
38499;SDS011;24269;51.894;4.622;2022-08-03T00:28:21;8.02;;;2.20;;
38499;SDS011;24269;51.894;4.622;2022-08-03T00:30:47;8.82;;;2.03;;
38499;SDS011;24269;51.894;4.622;2022-08-03T00:33:12;8.43;;;2.20;;
38499;SDS011;24269;51.894;4.622;2022-08-03T00:35:38;7.18;;;2.03;;
38499;SDS011;24269;51.894;4.622;2022-08-03T00:38:04;11.40;;;2.53;;
38499;SDS011;24269;51.894;4.622;2022-08-03T00:40:30;10.38;;;2.38;;
38499;SDS011;24269;51.894;4.622;2022-08-03T00:42:57;7.70;;;2.22;;
38499;SDS011;24269;51.894;4.622;2022-08-03T00:45:31;8.65;;;2.20;;
38499;SDS011;24269;51.894;4.622;2022-08-03T00:47:59;12.07;;;2.38;;
38499;SDS011;24269;51.894;4.622;2022-08-03T00:50:26;9.90;;;2.60;;
38499;SDS011;24269;51.894;4.622;2022-08-03T00:52:53;8.88;;;2.45;;
38499;SDS011;24269;51.894;4.622;2022-08-03T00:55:21;11.77;;;2.00;;
38499;SDS011;24269;51.894;4.622;2022-08-03T00:57:47;6.75;;;2.50;;
38499;SDS011;24269;51.894;4.622;2022-08-03T01:00:14;9.95;;;2.35;;
38499;SDS011;24269;51.894;4.622;2022-08-03T01:02:42;10.27;;;2.60;;
38499;SDS011;24269;51.894;4.622;2022-08-03T01:05:08;12.48;;;2.92;;
38499;SDS011;24269;51.894;4.622;2022-08-03T01:15:42;10.30;;;2.50;;
38499;SDS011;24269;51.894;4.622;2022-08-03T01:18:35;8.85;;;2.67;;
38499;SDS011;24269;51.894;4.622;2022-08-03T01:21:11;9.77;;;2.75;;
38499;SDS011;24269;51.894;4.622;2022-08-03T01:32:03;11.95;;;2.60;;
38499;SDS011;24269;51.894;4.622;2022-08-03T01:34:35;12.30;;;2.85;;
38499;SDS011;24269;51.894;4.622;2022-08-03T01:37:10;12.13;;;2.53;;
38499;SDS011;24269;51.894;4.622;2022-08-03T01:39:38;8.40;;;2.53;;
38499;SDS011;24269;51.894;4.622;2022-08-03T01:42:06;10.23;;;2.17;;
38499;SDS011;24269;51.894;4.622;2022-08-03T01:44:39;9.05;;;2.25;;
38499;SDS011;24269;51.894;4.622;2022-08-03T01:47:06;7.78;;;2.47;;
38499;SDS011;24269;51.894;4.622;2022-08-03T01:49:42;9.13;;;2.55;;
38499;SDS011;24269;51.894;4.622;2022-08-03T01:52:09;12.48;;;2.58;;
38499;SDS011;24269;51.894;4.622;2022-08-03T01:54:40;10.00;;;2.88;;
38499;SDS011;24269;51.894;4.622;2022-08-03T01:57:08;14.32;;;3.10;;
38499;SDS011;24269;51.894;4.622;2022-08-03T01:59:35;9.80;;;2.53;;
38499;SDS011;24269;51.894;4.622;2022-08-03T02:02:03;9.60;;;2.90;;
38499;SDS011;24269;51.894;4.622;2022-08-03T02:04:30;10.77;;;2.78;;
38499;SDS011;24269;51.894;4.622;2022-08-03T02:06:56;12.85;;;2.78;;
38499;SDS011;24269;51.894;4.622;2022-08-03T02:09:23;10.10;;;2.45;;
38499;SDS011;24269;51.894;4.622;2022-08-03T02:11:50;10.88;;;2.95;;
38499;SDS011;24269;51.894;4.622;2022-08-03T02:14:17;12.90;;;2.70;;
38499;SDS011;24269;51.894;4.622;2022-08-03T02:16:44;11.95;;;2.92;;
38499;SDS011;24269;51.894;4.622;2022-08-03T02:19:12;13.70;;;3.22;;
38499;SDS011;24269;51.894;4.622;2022-08-03T02:21:38;8.93;;;2.63;;
38499;SDS011;24269;51.894;4.622;2022-08-03T02:24:07;12.02;;;2.88;;
38499;SDS011;24269;51.894;4.622;2022-08-03T02:26:33;13.68;;;2.90;;
38499;SDS011;24269;51.894;4.622;2022-08-03T02:29:04;12.77;;;2.58;;
38499;SDS011;24269;51.894;4.622;2022-08-03T02:31:35;10.63;;;2.70;;
38499;SDS011;24269;51.894;4.622;2022-08-03T02:34:03;12.95;;;3.00;;
38499;SDS011;24269;51.894;4.622;2022-08-03T02:39:01;13.95;;;2.63;;
38499;SDS011;24269;51.894;4.622;2022-08-03T02:41:34;13.65;;;2.85;;
38499;SDS011;24269;51.894;4.622;2022-08-03T02:44:06;10.65;;;2.40;;
38499;SDS011;24269;51.894;4.622;2022-08-03T02:46:34;10.77;;;3.00;;
38499;SDS011;24269;51.894;4.622;2022-08-03T02:49:02;10.40;;;2.97;;
38499;SDS011;24269;51.894;4.622;2022-08-03T02:51:29;10.48;;;3.20;;
38499;SDS011;24269;51.894;4.622;2022-08-03T02:53:57;13.55;;;3.10;;
38499;SDS011;24269;51.894;4.622;2022-08-03T02:56:26;12.15;;;3.60;;
38499;SDS011;24269;51.894;4.622;2022-08-03T02:58:52;11.40;;;2.80;;
38499;SDS011;24269;51.894;4.622;2022-08-03T03:01:20;16.25;;;3.25;;
38499;SDS011;24269;51.894;4.622;2022-08-03T03:03:48;11.98;;;3.03;;
38499;SDS011;24269;51.894;4.622;2022-08-03T03:06:16;12.00;;;3.35;;
38499;SDS011;24269;51.894;4.622;2022-08-03T03:08:43;10.95;;;2.90;;
38499;SDS011;24269;51.894;4.622;2022-08-03T03:11:10;11.43;;;3.50;;
38499;SDS011;24269;51.894;4.622;2022-08-03T03:13:37;13.13;;;3.13;;
38499;SDS011;24269;51.894;4.622;2022-08-03T03:16:05;12.38;;;3.08;;
38499;SDS011;24269;51.894;4.622;2022-08-03T03:18:32;12.00;;;2.75;;
38499;SDS011;24269;51.894;4.622;2022-08-03T03:20:59;12.18;;;2.90;;
38499;SDS011;24269;51.894;4.622;2022-08-03T03:23:26;11.63;;;3.10;;
38499;SDS011;24269;51.894;4.622;2022-08-03T03:25:54;11.90;;;3.10;;
38499;SDS011;24269;51.894;4.622;2022-08-03T03:28:22;12.25;;;3.30;;
38499;SDS011;24269;51.894;4.622;2022-08-03T03:30:49;12.93;;;3.22;;
38499;SDS011;24269;51.894;4.622;2022-08-03T03:33:14;9.13;;;3.10;;
38499;SDS011;24269;51.894;4.622;2022-08-03T03:35:41;13.70;;;3.45;;
38499;SDS011;24269;51.894;4.622;2022-08-03T03:38:09;11.82;;;3.40;;
38499;SDS011;24269;51.894;4.622;2022-08-03T03:40:35;13.00;;;3.42;;
38499;SDS011;24269;51.894;4.622;2022-08-03T03:43:02;14.13;;;3.25;;
38499;SDS011;24269;51.894;4.622;2022-08-03T03:45:33;10.32;;;3.13;;
38499;SDS011;24269;51.894;4.622;2022-08-03T03:48:00;15.50;;;3.72;;
38499;SDS011;24269;51.894;4.622;2022-08-03T03:50:26;13.82;;;3.80;;
38499;SDS011;24269;51.894;4.622;2022-08-03T03:52:53;15.27;;;3.67;;
38499;SDS011;24269;51.894;4.622;2022-08-03T03:55:19;13.48;;;3.60;;
38499;SDS011;24269;51.894;4.622;2022-08-03T03:57:45;10.98;;;3.55;;
38499;SDS011;24269;51.894;4.622;2022-08-03T04:00:11;13.00;;;3.92;;
38499;SDS011;24269;51.894;4.622;2022-08-03T04:02:38;12.05;;;3.33;;
38499;SDS011;24269;51.894;4.622;2022-08-03T04:05:03;11.80;;;2.95;;
38499;SDS011;24269;51.894;4.622;2022-08-03T04:07:58;13.40;;;3.15;;
38499;SDS011;24269;51.894;4.622;2022-08-03T04:10:53;13.27;;;3.80;;
38499;SDS011;24269;51.894;4.622;2022-08-03T04:13:40;13.70;;;3.50;;
38499;SDS011;24269;51.894;4.622;2022-08-03T04:16:09;14.38;;;3.47;;
38499;SDS011;24269;51.894;4.622;2022-08-03T04:18:39;15.02;;;3.40;;
38499;SDS011;24269;51.894;4.622;2022-08-03T04:21:08;12.65;;;3.13;;
38499;SDS011;24269;51.894;4.622;2022-08-03T04:23:39;13.27;;;3.60;;
38499;SDS011;24269;51.894;4.622;2022-08-03T04:26:09;11.30;;;3.40;;
38499;SDS011;24269;51.894;4.622;2022-08-03T04:28:38;16.33;;;3.83;;
38499;SDS011;24269;51.894;4.622;2022-08-03T04:31:07;12.77;;;3.35;;
38499;SDS011;24269;51.894;4.622;2022-08-03T04:33:34;13.23;;;3.45;;
38499;SDS011;24269;51.894;4.622;2022-08-03T04:36:01;12.10;;;3.50;;
38499;SDS011;24269;51.894;4.622;2022-08-03T04:38:30;17.48;;;4.00;;
38499;SDS011;24269;51.894;4.622;2022-08-03T04:41:00;9.95;;;3.13;;
38499;SDS011;24269;51.894;4.622;2022-08-03T04:43:26;11.80;;;3.55;;
38499;SDS011;24269;51.894;4.622;2022-08-03T04:45:55;11.20;;;3.75;;
38499;SDS011;24269;51.894;4.622;2022-08-03T04:48:22;13.35;;;3.63;;
38499;SDS011;24269;51.894;4.622;2022-08-03T04:50:48;14.25;;;3.45;;
38499;SDS011;24269;51.894;4.622;2022-08-03T04:53:14;13.25;;;3.92;;
38499;SDS011;24269;51.894;4.622;2022-08-03T04:55:41;13.20;;;3.90;;
38499;SDS011;24269;51.894;4.622;2022-08-03T04:58:06;15.82;;;3.78;;
38499;SDS011;24269;51.894;4.622;2022-08-03T05:00:32;19.30;;;4.30;;
38499;SDS011;24269;51.894;4.622;2022-08-03T05:02:58;14.88;;;3.92;;
38499;SDS011;24269;51.894;4.622;2022-08-03T05:05:23;11.07;;;3.80;;
38499;SDS011;24269;51.894;4.622;2022-08-03T05:07:49;16.08;;;3.90;;
38499;SDS011;24269;51.894;4.622;2022-08-03T05:10:15;14.25;;;4.03;;
38499;SDS011;24269;51.894;4.622;2022-08-03T05:12:41;13.73;;;4.40;;
38499;SDS011;24269;51.894;4.622;2022-08-03T05:15:08;16.45;;;4.07;;
38499;SDS011;24269;51.894;4.622;2022-08-03T05:17:34;14.80;;;4.15;;
38499;SDS011;24269;51.894;4.622;2022-08-03T05:20:00;14.82;;;4.53;;
38499;SDS011;24269;51.894;4.622;2022-08-03T05:22:28;13.32;;;3.90;;
38499;SDS011;24269;51.894;4.622;2022-08-03T05:24:53;15.73;;;4.15;;
38499;SDS011;24269;51.894;4.622;2022-08-03T05:27:19;14.48;;;4.28;;
38499;SDS011;24269;51.894;4.622;2022-08-03T05:29:45;15.32;;;4.57;;
38499;SDS011;24269;51.894;4.622;2022-08-03T05:32:14;14.13;;;4.63;;
38499;SDS011;24269;51.894;4.622;2022-08-03T05:34:41;17.70;;;4.32;;
38499;SDS011;24269;51.894;4.622;2022-08-03T05:37:06;15.55;;;4.63;;
38499;SDS011;24269;51.894;4.622;2022-08-03T05:39:32;14.00;;;4.63;;
38499;SDS011;24269;51.894;4.622;2022-08-03T05:41:58;12.77;;;4.13;;
38499;SDS011;24269;51.894;4.622;2022-08-03T05:44:24;14.77;;;4.30;;
38499;SDS011;24269;51.894;4.622;2022-08-03T05:46:50;15.45;;;4.30;;
38499;SDS011;24269;51.894;4.622;2022-08-03T05:49:16;16.45;;;4.45;;
38499;SDS011;24269;51.894;4.622;2022-08-03T05:51:42;17.75;;;4.53;;
38499;SDS011;24269;51.894;4.622;2022-08-03T05:54:08;17.88;;;4.40;;
38499;SDS011;24269;51.894;4.622;2022-08-03T05:56:34;14.75;;;4.40;;
38499;SDS011;24269;51.894;4.622;2022-08-03T05:58:59;16.85;;;4.18;;
38499;SDS011;24269;51.894;4.622;2022-08-03T06:01:25;18.60;;;3.83;;
38499;SDS011;24269;51.894;4.622;2022-08-03T06:03:50;15.70;;;4.57;;
38499;SDS011;24269;51.894;4.622;2022-08-03T06:06:16;16.90;;;4.47;;
38499;SDS011;24269;51.894;4.622;2022-08-03T06:08:43;15.77;;;4.57;;
38499;SDS011;24269;51.894;4.622;2022-08-03T06:11:10;17.63;;;5.32;;
38499;SDS011;24269;51.894;4.622;2022-08-03T06:13:37;20.02;;;6.22;;
38499;SDS011;24269;51.894;4.622;2022-08-03T06:16:03;24.30;;;6.72;;
38499;SDS011;24269;51.894;4.622;2022-08-03T06:18:29;17.20;;;6.75;;
38499;SDS011;24269;51.894;4.622;2022-08-03T06:20:54;18.13;;;7.15;;
38499;SDS011;24269;51.894;4.622;2022-08-03T06:23:20;18.15;;;6.90;;
38499;SDS011;24269;51.894;4.622;2022-08-03T06:25:46;21.92;;;8.38;;
38499;SDS011;24269;51.894;4.622;2022-08-03T06:28:12;21.35;;;9.50;;
38499;SDS011;24269;51.894;4.622;2022-08-03T06:30:38;18.27;;;9.18;;
38499;SDS011;24269;51.894;4.622;2022-08-03T06:33:04;21.77;;;9.30;;
38499;SDS011;24269;51.894;4.622;2022-08-03T06:35:30;19.33;;;10.82;;
38499;SDS011;24269;51.894;4.622;2022-08-03T06:37:56;20.58;;;9.88;;
38499;SDS011;24269;51.894;4.622;2022-08-03T06:40:22;20.83;;;10.27;;
38499;SDS011;24269;51.894;4.622;2022-08-03T06:42:58;23.73;;;10.52;;
38499;SDS011;24269;51.894;4.622;2022-08-03T06:45:25;21.10;;;11.40;;
38499;SDS011;24269;51.894;4.622;2022-08-03T06:48:11;24.42;;;11.38;;
38499;SDS011;24269;51.894;4.622;2022-08-03T06:50:37;25.92;;;13.95;;
38499;SDS011;24269;51.894;4.622;2022-08-03T06:53:04;23.77;;;13.50;;
38499;SDS011;24269;51.894;4.622;2022-08-03T06:55:30;26.98;;;14.20;;
38499;SDS011;24269;51.894;4.622;2022-08-03T06:57:56;26.08;;;14.38;;
38499;SDS011;24269;51.894;4.622;2022-08-03T07:00:23;27.13;;;15.43;;
38499;SDS011;24269;51.894;4.622;2022-08-03T07:02:50;28.00;;;15.52;;
38499;SDS011;24269;51.894;4.622;2022-08-03T07:05:15;26.60;;;16.42;;
38499;SDS011;24269;51.894;4.622;2022-08-03T07:07:41;31.60;;;16.45;;
38499;SDS011;24269;51.894;4.622;2022-08-03T07:10:08;28.10;;;16.85;;
38499;SDS011;24269;51.894;4.622;2022-08-03T07:12:35;30.40;;;17.48;;
38499;SDS011;24269;51.894;4.622;2022-08-03T07:15:02;24.58;;;15.85;;
38499;SDS011;24269;51.894;4.622;2022-08-03T07:17:30;29.00;;;17.02;;
38499;SDS011;24269;51.894;4.622;2022-08-03T07:19:56;25.67;;;16.73;;
38499;SDS011;24269;51.894;4.622;2022-08-03T07:22:23;25.35;;;17.20;;
38499;SDS011;24269;51.894;4.622;2022-08-03T07:24:48;27.23;;;17.80;;
38499;SDS011;24269;51.894;4.622;2022-08-03T07:27:17;22.83;;;16.98;;
38499;SDS011;24269;51.894;4.622;2022-08-03T07:29:42;27.08;;;17.52;;
38499;SDS011;24269;51.894;4.622;2022-08-03T07:32:08;25.95;;;17.38;;
38499;SDS011;24269;51.894;4.622;2022-08-03T07:34:33;26.27;;;16.85;;
38499;SDS011;24269;51.894;4.622;2022-08-03T07:36:59;25.08;;;15.68;;
38499;SDS011;24269;51.894;4.622;2022-08-03T07:39:25;26.45;;;15.45;;
38499;SDS011;24269;51.894;4.622;2022-08-03T07:41:50;24.08;;;15.02;;
38499;SDS011;24269;51.894;4.622;2022-08-03T07:44:16;26.08;;;15.63;;
38499;SDS011;24269;51.894;4.622;2022-08-03T07:46:43;22.92;;;15.00;;
38499;SDS011;24269;51.894;4.622;2022-08-03T07:49:08;23.55;;;14.88;;
38499;SDS011;24269;51.894;4.622;2022-08-03T07:51:34;25.67;;;15.57;;
38499;SDS011;24269;51.894;4.622;2022-08-03T07:54:00;22.80;;;15.18;;
38499;SDS011;24269;51.894;4.622;2022-08-03T07:56:26;21.83;;;14.40;;
38499;SDS011;24269;51.894;4.622;2022-08-03T07:58:52;27.77;;;15.75;;
38499;SDS011;24269;51.894;4.622;2022-08-03T08:01:18;21.73;;;14.23;;
38499;SDS011;24269;51.894;4.622;2022-08-03T08:03:44;21.50;;;14.52;;
38499;SDS011;24269;51.894;4.622;2022-08-03T08:06:10;21.13;;;14.30;;
38499;SDS011;24269;51.894;4.622;2022-08-03T08:08:37;21.38;;;14.55;;
38499;SDS011;24269;51.894;4.622;2022-08-03T08:11:03;22.45;;;14.10;;
38499;SDS011;24269;51.894;4.622;2022-08-03T08:13:29;20.73;;;13.90;;
38499;SDS011;24269;51.894;4.622;2022-08-03T08:15:55;23.27;;;14.20;;
38499;SDS011;24269;51.894;4.622;2022-08-03T08:18:20;25.30;;;14.18;;
38499;SDS011;24269;51.894;4.622;2022-08-03T08:20:47;20.88;;;13.20;;
38499;SDS011;24269;51.894;4.622;2022-08-03T08:23:13;24.05;;;13.45;;
38499;SDS011;24269;51.894;4.622;2022-08-03T08:25:39;25.70;;;13.38;;
38499;SDS011;24269;51.894;4.622;2022-08-03T08:28:05;19.55;;;13.27;;
38499;SDS011;24269;51.894;4.622;2022-08-03T08:30:31;18.67;;;11.88;;
38499;SDS011;24269;51.894;4.622;2022-08-03T08:32:57;18.40;;;12.23;;
38499;SDS011;24269;51.894;4.622;2022-08-03T08:35:23;22.05;;;12.57;;
38499;SDS011;24269;51.894;4.622;2022-08-03T08:37:49;21.58;;;12.10;;
38499;SDS011;24269;51.894;4.622;2022-08-03T08:40:15;18.67;;;12.27;;
38499;SDS011;24269;51.894;4.622;2022-08-03T08:42:41;22.98;;;11.88;;
38499;SDS011;24269;51.894;4.622;2022-08-03T08:45:08;20.23;;;11.82;;
38499;SDS011;24269;51.894;4.622;2022-08-03T08:47:38;20.98;;;11.68;;
38499;SDS011;24269;51.894;4.622;2022-08-03T08:50:06;19.90;;;11.27;;
38499;SDS011;24269;51.894;4.622;2022-08-03T08:52:32;17.20;;;11.10;;
38499;SDS011;24269;51.894;4.622;2022-08-03T08:55:03;20.88;;;11.00;;
38499;SDS011;24269;51.894;4.622;2022-08-03T08:57:34;17.88;;;9.35;;
38499;SDS011;24269;51.894;4.622;2022-08-03T09:02:35;19.60;;;9.30;;
38499;SDS011;24269;51.894;4.622;2022-08-03T09:05:01;19.52;;;9.55;;
38499;SDS011;24269;51.894;4.622;2022-08-03T09:07:28;16.02;;;8.57;;
38499;SDS011;24269;51.894;4.622;2022-08-03T09:09:54;19.17;;;8.48;;
38499;SDS011;24269;51.894;4.622;2022-08-03T09:12:19;28.67;;;9.23;;
38499;SDS011;24269;51.894;4.622;2022-08-03T09:14:45;26.27;;;10.40;;
38499;SDS011;24269;51.894;4.622;2022-08-03T09:17:11;15.60;;;7.78;;
38499;SDS011;24269;51.894;4.622;2022-08-03T09:19:37;20.17;;;8.77;;
38499;SDS011;24269;51.894;4.622;2022-08-03T09:22:12;19.02;;;8.05;;
38499;SDS011;24269;51.894;4.622;2022-08-03T09:27:43;29.83;;;8.30;;
38499;SDS011;24269;51.894;4.622;2022-08-03T09:30:14;25.88;;;8.52;;
38499;SDS011;24269;51.894;4.622;2022-08-03T09:32:40;14.30;;;6.97;;
38499;SDS011;24269;51.894;4.622;2022-08-03T09:35:08;17.67;;;6.63;;
38499;SDS011;24269;51.894;4.622;2022-08-03T09:37:35;17.70;;;6.68;;
38499;SDS011;24269;51.894;4.622;2022-08-03T09:40:01;19.73;;;6.47;;
38499;SDS011;24269;51.894;4.622;2022-08-03T09:42:27;19.02;;;6.32;;
38499;SDS011;24269;51.894;4.622;2022-08-03T09:44:53;16.35;;;6.00;;
38499;SDS011;24269;51.894;4.622;2022-08-03T09:49:58;14.98;;;5.20;;
38499;SDS011;24269;51.894;4.622;2022-08-03T09:53:00;16.30;;;5.22;;
38499;SDS011;24269;51.894;4.622;2022-08-03T09:55:17;15.05;;;4.95;;
38499;SDS011;24269;51.894;4.622;2022-08-03T09:57:48;12.65;;;4.53;;
38499;SDS011;24269;51.894;4.622;2022-08-03T10:03:35;13.63;;;4.53;;
38499;SDS011;24269;51.894;4.622;2022-08-03T10:06:15;14.52;;;4.40;;
38499;SDS011;24269;51.894;4.622;2022-08-03T10:08:40;14.48;;;4.75;;
38499;SDS011;24269;51.894;4.622;2022-08-03T10:11:06;11.80;;;4.25;;
38499;SDS011;24269;51.894;4.622;2022-08-03T10:13:32;11.48;;;4.20;;
38499;SDS011;24269;51.894;4.622;2022-08-03T10:15:58;12.32;;;4.57;;
38499;SDS011;24269;51.894;4.622;2022-08-03T10:18:23;15.77;;;5.40;;
38499;SDS011;24269;51.894;4.622;2022-08-03T10:20:51;12.13;;;4.07;;
38499;SDS011;24269;51.894;4.622;2022-08-03T10:23:19;13.93;;;4.65;;
38499;SDS011;24269;51.894;4.622;2022-08-03T10:25:47;16.35;;;4.80;;
38499;SDS011;24269;51.894;4.622;2022-08-03T10:28:17;13.07;;;4.60;;
38499;SDS011;24269;51.894;4.622;2022-08-03T10:30:47;9.60;;;4.93;;
38499;SDS011;24269;51.894;4.622;2022-08-03T10:33:19;15.00;;;5.03;;
38499;SDS011;24269;51.894;4.622;2022-08-03T10:35:46;14.73;;;4.95;;
38499;SDS011;24269;51.894;4.622;2022-08-03T10:38:17;13.17;;;4.87;;
38499;SDS011;24269;51.894;4.622;2022-08-03T10:40:45;10.93;;;5.05;;
38499;SDS011;24269;51.894;4.622;2022-08-03T10:43:18;10.27;;;4.40;;
38499;SDS011;24269;51.894;4.622;2022-08-03T10:45:52;11.77;;;4.70;;
38499;SDS011;24269;51.894;4.622;2022-08-03T10:48:19;12.20;;;4.55;;
38499;SDS011;24269;51.894;4.622;2022-08-03T10:50:47;15.13;;;4.53;;
38499;SDS011;24269;51.894;4.622;2022-08-03T10:53:14;11.52;;;4.22;;
38499;SDS011;24269;51.894;4.622;2022-08-03T10:55:44;13.75;;;4.18;;
38499;SDS011;24269;51.894;4.622;2022-08-03T11:03:26;13.32;;;4.82;;
38499;SDS011;24269;51.894;4.622;2022-08-03T11:05:51;12.65;;;5.05;;
38499;SDS011;24269;51.894;4.622;2022-08-03T11:08:23;10.93;;;4.82;;
38499;SDS011;24269;51.894;4.622;2022-08-03T11:10:57;13.20;;;5.10;;
38499;SDS011;24269;51.894;4.622;2022-08-03T11:13:25;12.98;;;5.15;;
38499;SDS011;24269;51.894;4.622;2022-08-03T11:15:55;10.70;;;4.78;;
38499;SDS011;24269;51.894;4.622;2022-08-03T11:18:22;13.23;;;5.30;;
38499;SDS011;24269;51.894;4.622;2022-08-03T11:23:19;13.15;;;4.70;;
38499;SDS011;24269;51.894;4.622;2022-08-03T11:28:36;16.60;;;5.07;;
38499;SDS011;24269;51.894;4.622;2022-08-03T11:37:32;16.73;;;6.30;;
38499;SDS011;24269;51.894;4.622;2022-08-03T11:39:43;14.45;;;5.25;;
38499;SDS011;24269;51.894;4.622;2022-08-03T11:42:37;13.05;;;5.28;;
38499;SDS011;24269;51.894;4.622;2022-08-03T11:45:00;13.30;;;5.20;;
38499;SDS011;24269;51.894;4.622;2022-08-03T11:47:30;15.15;;;5.32;;
38499;SDS011;24269;51.894;4.622;2022-08-03T11:50:02;12.63;;;5.00;;
38499;SDS011;24269;51.894;4.622;2022-08-03T11:52:34;14.80;;;5.13;;
38499;SDS011;24269;51.894;4.622;2022-08-03T11:55:09;12.65;;;5.10;;
38499;SDS011;24269;51.894;4.622;2022-08-03T11:57:36;17.45;;;5.35;;
38499;SDS011;24269;51.894;4.622;2022-08-03T12:00:03;12.13;;;4.68;;
38499;SDS011;24269;51.894;4.622;2022-08-03T12:02:53;12.02;;;4.63;;
38499;SDS011;24269;51.894;4.622;2022-08-03T12:05:34;14.10;;;4.82;;
38499;SDS011;24269;51.894;4.622;2022-08-03T12:08:04;12.70;;;4.45;;
38499;SDS011;24269;51.894;4.622;2022-08-03T12:10:31;11.63;;;3.65;;
38499;SDS011;24269;51.894;4.622;2022-08-03T12:12:57;12.27;;;3.30;;
38499;SDS011;24269;51.894;4.622;2022-08-03T12:15:28;11.60;;;3.67;;
38499;SDS011;24269;51.894;4.622;2022-08-03T12:17:56;12.35;;;3.50;;
38499;SDS011;24269;51.894;4.622;2022-08-03T12:20:23;9.93;;;3.55;;
38499;SDS011;24269;51.894;4.622;2022-08-03T12:22:50;11.85;;;3.20;;
38499;SDS011;24269;51.894;4.622;2022-08-03T12:25:23;9.85;;;2.88;;
38499;SDS011;24269;51.894;4.622;2022-08-03T12:27:50;9.05;;;3.10;;
38499;SDS011;24269;51.894;4.622;2022-08-03T12:30:17;12.77;;;3.28;;
38499;SDS011;24269;51.894;4.622;2022-08-03T12:32:43;14.00;;;2.67;;
38499;SDS011;24269;51.894;4.622;2022-08-03T12:35:09;12.15;;;2.75;;
38499;SDS011;24269;51.894;4.622;2022-08-03T12:37:35;11.95;;;3.20;;
38499;SDS011;24269;51.894;4.622;2022-08-03T12:40:02;8.65;;;2.38;;
38499;SDS011;24269;51.894;4.622;2022-08-03T12:42:33;8.27;;;2.40;;
38499;SDS011;24269;51.894;4.622;2022-08-03T12:48:02;5.78;;;2.00;;
38499;SDS011;24269;51.894;4.622;2022-08-03T12:50:32;10.75;;;2.05;;
38499;SDS011;24269;51.894;4.622;2022-08-03T12:53:00;12.40;;;2.72;;
38499;SDS011;24269;51.894;4.622;2022-08-03T12:55:28;9.55;;;2.40;;
38499;SDS011;24269;51.894;4.622;2022-08-03T13:00:25;7.53;;;2.60;;
38499;SDS011;24269;51.894;4.622;2022-08-03T13:02:58;7.22;;;1.67;;
38499;SDS011;24269;51.894;4.622;2022-08-03T13:05:43;8.10;;;2.05;;
38499;SDS011;24269;51.894;4.622;2022-08-03T13:08:18;7.60;;;1.90;;
38499;SDS011;24269;51.894;4.622;2022-08-03T13:10:46;8.63;;;2.28;;
38499;SDS011;24269;51.894;4.622;2022-08-03T13:13:12;7.55;;;2.05;;
38499;SDS011;24269;51.894;4.622;2022-08-03T13:15:38;11.50;;;1.83;;
38499;SDS011;24269;51.894;4.622;2022-08-03T13:18:04;7.70;;;1.50;;
38499;SDS011;24269;51.894;4.622;2022-08-03T13:20:30;10.13;;;1.77;;
38499;SDS011;24269;51.894;4.622;2022-08-03T13:22:55;6.70;;;1.70;;
38499;SDS011;24269;51.894;4.622;2022-08-03T13:25:21;4.63;;;1.60;;
38499;SDS011;24269;51.894;4.622;2022-08-03T13:27:47;6.88;;;1.80;;
38499;SDS011;24269;51.894;4.622;2022-08-03T13:30:13;9.10;;;1.58;;
38499;SDS011;24269;51.894;4.622;2022-08-03T13:32:42;7.13;;;1.65;;
38499;SDS011;24269;51.894;4.622;2022-08-03T13:35:09;5.15;;;1.58;;
38499;SDS011;24269;51.894;4.622;2022-08-03T13:37:36;11.38;;;1.90;;
38499;SDS011;24269;51.894;4.622;2022-08-03T13:40:03;6.18;;;1.85;;
38499;SDS011;24269;51.894;4.622;2022-08-03T13:42:31;7.65;;;1.73;;
38499;SDS011;24269;51.894;4.622;2022-08-03T13:44:57;7.22;;;1.70;;
38499;SDS011;24269;51.894;4.622;2022-08-03T13:47:24;7.00;;;1.50;;
38499;SDS011;24269;51.894;4.622;2022-08-03T13:49:50;8.35;;;1.40;;
38499;SDS011;24269;51.894;4.622;2022-08-03T13:52:17;8.00;;;1.67;;
38499;SDS011;24269;51.894;4.622;2022-08-03T13:54:43;6.95;;;1.60;;
38499;SDS011;24269;51.894;4.622;2022-08-03T13:57:08;7.07;;;1.23;;
38499;SDS011;24269;51.894;4.622;2022-08-03T13:59:35;5.40;;;1.85;;
38499;SDS011;24269;51.894;4.622;2022-08-03T14:02:01;5.30;;;1.30;;
38499;SDS011;24269;51.894;4.622;2022-08-03T14:04:29;6.25;;;1.50;;
38499;SDS011;24269;51.894;4.622;2022-08-03T14:06:55;7.85;;;1.30;;
38499;SDS011;24269;51.894;4.622;2022-08-03T14:09:20;5.95;;;1.40;;
38499;SDS011;24269;51.894;4.622;2022-08-03T14:11:46;8.10;;;1.50;;
38499;SDS011;24269;51.894;4.622;2022-08-03T14:14:12;8.35;;;1.80;;
38499;SDS011;24269;51.894;4.622;2022-08-03T14:16:38;9.85;;;1.77;;
38499;SDS011;24269;51.894;4.622;2022-08-03T14:19:04;7.57;;;1.77;;
38499;SDS011;24269;51.894;4.622;2022-08-03T14:21:30;7.90;;;1.58;;
38499;SDS011;24269;51.894;4.622;2022-08-03T14:23:57;8.73;;;1.58;;
38499;SDS011;24269;51.894;4.622;2022-08-03T14:26:22;8.73;;;1.70;;
38499;SDS011;24269;51.894;4.622;2022-08-03T14:28:48;6.95;;;1.63;;
38499;SDS011;24269;51.894;4.622;2022-08-03T14:31:14;8.18;;;1.70;;
38499;SDS011;24269;51.894;4.622;2022-08-03T14:33:39;8.75;;;1.80;;
38499;SDS011;24269;51.894;4.622;2022-08-03T14:36:05;8.57;;;1.67;;
38499;SDS011;24269;51.894;4.622;2022-08-03T14:38:30;6.30;;;1.50;;
38499;SDS011;24269;51.894;4.622;2022-08-03T14:40:56;10.40;;;1.92;;
38499;SDS011;24269;51.894;4.622;2022-08-03T14:43:22;7.53;;;1.42;;
38499;SDS011;24269;51.894;4.622;2022-08-03T14:45:48;9.70;;;1.70;;
38499;SDS011;24269;51.894;4.622;2022-08-03T14:48:19;6.95;;;1.55;;
38499;SDS011;24269;51.894;4.622;2022-08-03T14:50:46;6.00;;;1.70;;
38499;SDS011;24269;51.894;4.622;2022-08-03T14:53:12;6.50;;;1.30;;
38499;SDS011;24269;51.894;4.622;2022-08-03T14:55:37;5.90;;;1.38;;
38499;SDS011;24269;51.894;4.622;2022-08-03T14:58:03;8.48;;;1.20;;
38499;SDS011;24269;51.894;4.622;2022-08-03T15:00:32;7.90;;;1.40;;
38499;SDS011;24269;51.894;4.622;2022-08-03T15:02:58;4.95;;;1.00;;
38499;SDS011;24269;51.894;4.622;2022-08-03T15:05:24;7.82;;;1.02;;
38499;SDS011;24269;51.894;4.622;2022-08-03T15:07:50;9.63;;;1.42;;
38499;SDS011;24269;51.894;4.622;2022-08-03T15:10:15;8.10;;;1.20;;
38499;SDS011;24269;51.894;4.622;2022-08-03T15:12:41;5.28;;;1.25;;
38499;SDS011;24269;51.894;4.622;2022-08-03T15:15:07;5.35;;;1.20;;
38499;SDS011;24269;51.894;4.622;2022-08-03T15:17:32;8.13;;;1.27;;
38499;SDS011;24269;51.894;4.622;2022-08-03T15:19:58;5.57;;;1.20;;
38499;SDS011;24269;51.894;4.622;2022-08-03T15:22:23;7.57;;;1.17;;
38499;SDS011;24269;51.894;4.622;2022-08-03T15:24:49;7.10;;;1.30;;
38499;SDS011;24269;51.894;4.622;2022-08-03T15:27:15;6.60;;;1.50;;
38499;SDS011;24269;51.894;4.622;2022-08-03T15:29:40;9.13;;;1.60;;
38499;SDS011;24269;51.894;4.622;2022-08-03T15:32:06;9.30;;;2.10;;